Time;durP1;ratioP1;P1;durP2;ratioP2;P2;SDS_P1;SDS_P2;PMS_P1;PMS_P2;Temp;Humidity;BMP_temperature;BMP_pressure;BME280_temperature;BME280_humidity;BME280_pressure;Samples;Min_cycle;Max_cycle;Signal;HPM_P1;HPM_P2
2023/01/05 00:01:17;;;;;;;0.75;0.65;;;10.20;98.00;;;;;;5035442;28;20032;-65
2023/01/05 00:03:42;;;;;;;0.77;0.60;;;10.30;98.00;;;;;;5031115;28;20025;-66
2023/01/05 00:06:13;;;;;;;1.27;0.68;;;10.30;98.00;;;;;;5034364;28;20029;-66
2023/01/05 00:08:40;;;;;;;1.10;0.60;;;10.30;98.00;;;;;;5031563;28;20032;-67
2023/01/05 00:22:31;;;;;;;1.08;0.60;;;10.30;98.00;;;;;;5028813;28;20569;-65
2023/01/05 00:25:01;;;;;;;1.35;0.70;;;10.20;98.00;;;;;;5029265;28;20045;-65
2023/01/05 00:27:27;;;;;;;0.63;0.60;;;10.20;98.00;;;;;;5030261;28;20108;-67
2023/01/05 00:29:53;;;;;;;0.93;0.63;;;10.10;98.00;;;;;;5035598;28;20034;-67
2023/01/05 00:32:18;;;;;;;1.63;0.70;;;10.10;98.00;;;;;;5036637;28;20036;-67
2023/01/05 00:34:44;;;;;;;0.60;0.60;;;10.10;98.00;;;;;;5035836;28;20317;-66
2023/01/05 00:37:10;;;;;;;0.90;0.70;;;10.10;98.00;;;;;;5031189;28;20025;-66
2023/01/05 00:39:35;;;;;;;0.73;0.60;;;10.20;98.00;;;;;;5028803;28;20107;-66
2023/01/05 00:42:01;;;;;;;0.73;0.70;;;10.10;98.00;;;;;;5035009;28;20433;-67
2023/01/05 00:44:26;;;;;;;1.00;0.65;;;10.20;98.00;;;;;;5021746;28;20477;-66
2023/01/05 00:46:52;;;;;;;0.85;0.68;;;10.20;98.00;;;;;;5022613;28;20472;-66
2023/01/05 00:49:17;;;;;;;0.88;0.60;;;10.20;98.00;;;;;;5038640;28;20084;-68
2023/01/05 00:51:43;;;;;;;1.20;0.80;;;10.20;98.00;;;;;;5028388;28;20101;-67
2023/01/05 00:54:08;;;;;;;0.77;0.63;;;9.90;98.00;;;;;;5026029;28;20033;-66
2023/01/05 00:56:34;;;;;;;0.85;0.60;;;9.70;98.00;;;;;;5035118;28;20043;-67
2023/01/05 00:58:59;;;;;;;1.95;0.70;;;9.50;96.90;;;;;;5035533;28;20035;-67
2023/01/05 01:01:28;;;;;;;0.93;0.70;;;9.30;94.10;;;;;;5035715;28;20067;-67
2023/01/05 01:03:55;;;;;;;0.93;0.70;;;9.20;94.70;;;;;;5033561;28;20036;-67
2023/01/05 01:06:21;;;;;;;0.85;0.70;;;9.20;94.10;;;;;;5034414;28;20056;-67
2023/01/05 01:08:47;;;;;;;0.73;0.70;;;9.20;93.90;;;;;;5034826;28;20326;-68
2023/01/05 01:11:15;;;;;;;1.05;0.75;;;9.20;92.80;;;;;;5036309;28;20120;-67
2023/01/05 01:13:42;;;;;;;1.33;0.73;;;9.20;93.00;;;;;;5036366;28;20112;-67
2023/01/05 01:16:10;;;;;;;1.25;0.80;;;9.10;92.40;;;;;;5036368;28;20028;-67
2023/01/05 01:18:36;;;;;;;1.02;0.70;;;9.10;92.70;;;;;;5050930;28;20485;-67
2023/01/05 01:21:03;;;;;;;1.33;0.82;;;9.10;92.20;;;;;;5033293;28;20037;-67
2023/01/05 01:23:28;;;;;;;2.47;0.80;;;9.10;93.10;;;;;;5033651;28;20037;-67
2023/01/05 01:25:55;;;;;;;1.80;0.80;;;9.10;93.50;;;;;;5029957;28;20045;-67
2023/01/05 01:28:22;;;;;;;1.33;0.70;;;9.20;93.90;;;;;;5035293;28;20033;-67
2023/01/05 01:30:47;;;;;;;0.75;0.63;;;9.30;94.40;;;;;;5035659;28;20071;-67
2023/01/05 01:33:13;;;;;;;0.90;0.68;;;9.30;94.30;;;;;;5035463;28;20025;-67
2023/01/05 01:35:38;;;;;;;0.60;0.60;;;9.30;94.80;;;;;;5032343;28;20041;-66
2023/01/05 01:38:04;;;;;;;1.80;0.70;;;9.30;94.80;;;;;;5034465;28;20791;-67
2023/01/05 01:40:29;;;;;;;1.50;0.60;;;9.40;96.10;;;;;;5036696;28;20033;-66
2023/01/05 01:42:55;;;;;;;0.50;0.50;;;9.40;96.10;;;;;;5037340;28;20026;-67
2023/01/05 01:45:23;;;;;;;0.63;0.60;;;9.50;96.60;;;;;;5036259;28;20032;-66
2023/01/05 01:47:59;;;;;;;0.55;0.55;;;9.50;96.20;;;;;;5032883;28;20061;-67
2023/01/05 01:50:30;;;;;;;1.98;0.60;;;9.60;96.90;;;;;;5018089;28;20025;-67
2023/01/05 01:53:10;;;;;;;0.65;0.60;;;9.60;97.30;;;;;;5024419;28;20029;-66
2023/01/05 01:55:38;;;;;;;0.70;0.60;;;9.60;97.10;;;;;;5034251;28;20030;-66
2023/01/05 01:58:10;;;;;;;0.70;0.60;;;9.60;96.90;;;;;;5032952;28;20033;-67
2023/01/05 02:00:38;;;;;;;1.00;0.60;;;9.60;96.50;;;;;;5033449;28;20013;-66
2023/01/05 02:03:04;;;;;;;0.82;0.60;;;9.60;96.50;;;;;;5036726;28;20025;-66
2023/01/05 02:05:32;;;;;;;0.70;0.60;;;9.60;96.30;;;;;;5032840;28;20021;-66
2023/01/05 02:07:58;;;;;;;1.92;0.70;;;9.60;96.70;;;;;;5034285;28;20076;-66
2023/01/05 02:10:32;;;;;;;2.28;0.60;;;9.60;96.80;;;;;;5031459;28;20118;-65
2023/01/05 02:13:16;;;;;;;0.98;0.60;;;9.60;96.50;;;;;;5033004;28;20032;-66
2023/01/05 02:16:07;;;;;;;1.08;0.70;;;9.60;97.20;;;;;;5030834;28;20116;-67
2023/01/05 02:18:45;;;;;;;0.88;0.60;;;9.60;96.60;;;;;;5032009;28;20330;-67
2023/01/05 02:21:20;;;;;;;0.50;0.50;;;9.60;97.30;;;;;;5026574;28;20036;-67
2023/01/05 02:23:48;;;;;;;0.50;0.50;;;9.60;97.40;;;;;;5033294;28;20064;-67
2023/01/05 02:26:23;;;;;;;0.50;0.50;;;9.60;97.80;;;;;;5032019;28;20129;-66
2023/01/05 02:29:13;;;;;;;1.08;0.60;;;9.70;97.90;;;;;;5034753;28;20025;-65
2023/01/05 02:32:09;;;;;;;0.50;0.50;;;9.70;98.00;;;;;;5033682;28;20025;-66
2023/01/05 02:34:47;;;;;;;1.50;0.60;;;9.70;98.00;;;;;;5036227;28;20025;-67
2023/01/05 02:37:28;;;;;;;0.60;0.60;;;9.70;97.70;;;;;;5048994;28;20021;-66
2023/01/05 02:40:10;;;;;;;0.57;0.57;;;9.70;97.80;;;;;;5035112;28;20029;-66
2023/01/05 02:42:38;;;;;;;1.23;0.60;;;9.70;97.50;;;;;;5034469;28;20037;-66
2023/01/05 02:45:05;;;;;;;0.60;0.60;;;9.60;97.50;;;;;;5036019;28;20025;-66
2023/01/05 02:47:36;;;;;;;0.60;0.60;;;9.60;97.50;;;;;;5033193;28;20112;-66
2023/01/05 02:50:12;;;;;;;0.93;0.60;;;9.70;97.50;;;;;;5035248;28;20041;-66
2023/01/05 02:52:59;;;;;;;1.10;0.70;;;9.70;97.60;;;;;;5026978;28;20029;-66
2023/01/05 02:55:43;;;;;;;0.70;0.60;;;9.70;97.90;;;;;;5024611;28;20021;-66
2023/01/05 02:58:32;;;;;;;1.48;0.70;;;9.70;97.60;;;;;;5035008;28;20036;-66
2023/01/05 03:01:12;;;;;;;0.70;0.60;;;9.70;98.00;;;;;;5033875;28;20466;-66
2023/01/05 03:03:42;;;;;;;1.00;0.65;;;9.70;98.00;;;;;;5029611;28;20021;-66
2023/01/05 03:06:45;;;;;;;1.55;0.60;;;9.70;98.00;;;;;;5040328;28;20441;-66
2023/01/05 03:09:12;;;;;;;0.95;0.70;;;9.70;98.00;;;;;;5031872;28;20342;-66
2023/01/05 03:14:38;;;;;;;0.60;0.60;;;9.70;98.00;;;;;;5026429;28;20048;-66
2023/01/05 03:17:08;;;;;;;1.02;0.70;;;9.70;97.90;;;;;;5032416;28;20030;-65
2023/01/05 03:19:40;;;;;;;0.60;0.60;;;9.70;97.80;;;;;;5033581;28;20033;-65
2023/01/05 03:36:38;;;;;;;0.90;0.70;;;9.60;97.10;;;;;;5030388;28;20033;-66
2023/01/05 03:39:06;;;;;;;1.60;0.60;;;9.60;97.10;;;;;;5035092;28;20087;-66
2023/01/05 03:41:32;;;;;;;0.50;0.50;;;9.60;97.50;;;;;;5033951;28;20018;-66
2023/01/05 03:43:57;;;;;;;1.10;0.65;;;9.70;97.60;;;;;;5035365;28;20048;-65
2023/01/05 03:46:23;;;;;;;1.00;0.63;;;9.60;97.30;;;;;;5033771;28;20037;-66
2023/01/05 03:48:49;;;;;;;1.00;0.70;;;9.60;97.20;;;;;;5033568;28;20034;-65
2023/01/05 03:51:15;;;;;;;0.60;0.60;;;9.60;96.90;;;;;;5032303;28;20419;-66
2023/01/05 03:53:41;;;;;;;0.60;0.60;;;9.60;97.00;;;;;;5035229;28;20029;-66
2023/01/05 03:56:07;;;;;;;1.77;0.60;;;9.60;97.20;;;;;;5034968;28;20029;-66
2023/01/05 03:58:33;;;;;;;0.65;0.60;;;9.60;97.20;;;;;;5034944;28;20032;-66
2023/01/05 04:00:58;;;;;;;0.82;0.63;;;9.60;97.10;;;;;;5032879;28;20021;-66
2023/01/05 04:03:24;;;;;;;0.68;0.60;;;9.60;97.00;;;;;;5038476;28;20386;-66
2023/01/05 04:05:49;;;;;;;0.90;0.60;;;9.50;96.90;;;;;;5035921;28;20092;-67
2023/01/05 04:08:15;;;;;;;0.95;0.63;;;9.60;97.10;;;;;;5035050;28;20025;-67
2023/01/05 04:10:41;;;;;;;0.68;0.60;;;9.60;97.00;;;;;;5036679;28;20104;-66
2023/01/05 04:13:07;;;;;;;0.50;0.50;;;9.60;97.40;;;;;;5037620;28;20336;-66
2023/01/05 04:15:32;;;;;;;1.88;0.60;;;9.60;97.80;;;;;;5035920;28;20336;-66
2023/01/05 04:17:58;;;;;;;0.50;0.50;;;9.60;97.60;;;;;;5035615;28;20091;-66
2023/01/05 04:20:24;;;;;;;0.80;0.60;;;9.60;97.60;;;;;;5035487;28;20037;-66
2023/01/05 04:22:50;;;;;;;1.05;0.60;;;9.60;97.60;;;;;;5027009;28;20026;-66
2023/01/05 04:25:15;;;;;;;0.80;0.60;;;9.60;97.40;;;;;;5035275;28;20045;-66
2023/01/05 04:27:41;;;;;;;0.60;0.50;;;9.50;97.10;;;;;;5038178;28;20052;-66
2023/01/05 04:30:07;;;;;;;1.67;0.50;;;9.50;96.60;;;;;;5036424;28;20021;-66
2023/01/05 04:32:35;;;;;;;0.88;0.55;;;9.40;96.30;;;;;;5034183;28;20024;-65
2023/01/05 04:35:01;;;;;;;0.60;0.60;;;9.40;96.30;;;;;;5032692;28;20381;-65
2023/01/05 04:37:27;;;;;;;1.70;1.05;;;9.40;96.70;;;;;;5034823;28;20025;-66
2023/01/05 04:39:52;;;;;;;2.63;1.15;;;9.50;96.60;;;;;;5037735;28;20100;-65
2023/01/05 04:42:18;;;;;;;5.65;1.75;;;9.50;96.70;;;;;;5036685;28;20087;-66
2023/01/05 04:44:43;;;;;;;1.90;0.63;;;9.50;96.70;;;;;;5035975;28;20064;-66
2023/01/05 04:47:09;;;;;;;0.93;0.60;;;9.50;96.50;;;;;;5036698;28;20365;-66
2023/01/05 04:49:35;;;;;;;0.98;0.63;;;9.40;96.30;;;;;;5030784;28;20429;-66
2023/01/05 04:52:00;;;;;;;1.33;0.60;;;9.40;95.70;;;;;;5033821;28;20347;-66
2023/01/05 04:54:26;;;;;;;1.30;0.60;;;9.40;96.00;;;;;;5034299;28;20119;-66
2023/01/05 04:56:51;;;;;;;0.80;0.60;;;9.40;96.00;;;;;;5032305;28;20029;-66
2023/01/05 04:59:17;;;;;;;1.58;0.60;;;9.40;96.20;;;;;;5027774;28;20159;-66
2023/01/05 05:01:43;;;;;;;0.60;0.60;;;9.40;95.90;;;;;;5032657;28;20032;-66
2023/01/05 05:04:08;;;;;;;0.50;0.50;;;9.40;95.70;;;;;;5032575;28;20167;-66
2023/01/05 05:06:34;;;;;;;0.60;0.50;;;9.40;95.30;;;;;;5034756;28;20338;-66
2023/01/05 05:08:59;;;;;;;1.75;0.70;;;9.40;95.60;;;;;;5033128;28;20073;-66
2023/01/05 05:11:25;;;;;;;1.65;0.60;;;9.40;95.20;;;;;;5033812;28;20033;-66
2023/01/05 05:13:50;;;;;;;1.25;0.50;;;9.30;95.00;;;;;;5035653;28;20017;-66
2023/01/05 05:16:16;;;;;;;0.65;0.60;;;9.30;94.90;;;;;;5034436;28;20100;-66
2023/01/05 05:18:41;;;;;;;1.73;0.60;;;9.30;94.50;;;;;;5036153;28;20064;-66
2023/01/05 05:21:07;;;;;;;1.60;0.80;;;9.40;95.10;;;;;;5034058;28;20099;-66
2023/01/05 05:23:33;;;;;;;2.20;0.90;;;9.30;94.70;;;;;;5034215;28;20040;-66
2023/01/05 05:25:58;;;;;;;0.70;0.60;;;9.30;94.10;;;;;;5033663;28;20038;-65
2023/01/05 05:28:26;;;;;;;1.02;0.70;;;9.30;94.50;;;;;;5031111;28;20439;-66
2023/01/05 05:30:53;;;;;;;0.85;0.70;;;9.30;94.30;;;;;;5033444;28;20494;-66
2023/01/05 05:33:19;;;;;;;1.10;0.75;;;9.30;94.10;;;;;;5034288;28;20104;-66
2023/01/05 05:35:44;;;;;;;1.65;0.65;;;9.30;94.10;;;;;;5033612;28;20456;-66
2023/01/05 05:38:10;;;;;;;0.68;0.63;;;9.30;93.60;;;;;;5038191;28;20030;-66
2023/01/05 05:40:36;;;;;;;0.60;0.60;;;9.30;93.50;;;;;;5035767;28;20033;-66
2023/01/05 05:43:01;;;;;;;0.98;0.60;;;9.30;93.60;;;;;;5033797;28;20041;-66
2023/01/05 05:45:27;;;;;;;0.90;0.60;;;9.30;92.90;;;;;;5027808;28;20136;-66
2023/01/05 05:47:52;;;;;;;0.95;0.70;;;9.30;93.30;;;;;;5034308;28;20035;-66
2023/01/05 05:50:18;;;;;;;0.90;0.70;;;9.30;93.30;;;;;;5035255;28;20036;-66
2023/01/05 05:52:43;;;;;;;1.05;0.60;;;9.30;93.50;;;;;;5034747;28;20021;-65
2023/01/05 05:55:09;;;;;;;0.65;0.60;;;9.30;93.60;;;;;;5035105;28;20445;-66
2023/01/05 05:57:35;;;;;;;0.60;0.50;;;9.30;93.50;;;;;;5036904;28;20030;-66
2023/01/05 06:00:00;;;;;;;0.90;0.60;;;9.30;93.60;;;;;;5034938;28;20025;-66
2023/01/05 06:02:26;;;;;;;0.80;0.60;;;9.30;93.20;;;;;;5034658;28;20025;-66
2023/01/05 06:04:51;;;;;;;0.90;0.73;;;9.30;93.30;;;;;;5026837;28;20022;-65
2023/01/05 06:07:17;;;;;;;1.58;0.73;;;9.30;92.70;;;;;;5035829;28;20033;-65
2023/01/05 06:09:42;;;;;;;1.70;0.70;;;9.20;92.70;;;;;;5033724;28;20089;-65
2023/01/05 06:12:08;;;;;;;0.77;0.70;;;9.20;92.30;;;;;;5038319;28;20037;-65
2023/01/05 06:14:33;;;;;;;1.13;0.60;;;9.20;92.60;;;;;;5038200;28;20022;-66
2023/01/05 06:16:59;;;;;;;0.60;0.60;;;9.20;92.70;;;;;;5032828;28;20041;-65
2023/01/05 06:19:25;;;;;;;1.83;0.90;;;9.20;92.80;;;;;;5035012;28;20030;-67
2023/01/05 06:21:50;;;;;;;0.88;0.63;;;9.30;92.80;;;;;;5034123;28;20037;-67
2023/01/05 06:24:18;;;;;;;2.60;0.70;;;9.30;93.30;;;;;;5034768;28;20032;-67
2023/01/05 06:26:44;;;;;;;1.17;0.60;;;9.30;94.00;;;;;;5033947;28;20052;-66
2023/01/05 06:29:10;;;;;;;0.60;0.60;;;9.30;94.00;;;;;;5032871;28;20029;-66
2023/01/05 06:31:36;;;;;;;0.60;0.60;;;9.30;94.00;;;;;;5032202;28;20096;-67
2023/01/05 06:34:02;;;;;;;1.35;0.80;;;9.30;94.10;;;;;;5022344;28;20115;-66
2023/01/05 06:36:27;;;;;;;0.70;0.60;;;9.40;94.40;;;;;;5032206;28;20057;-67
2023/01/05 06:38:53;;;;;;;1.48;0.80;;;9.40;94.30;;;;;;5030370;28;20474;-67
2023/01/05 06:41:18;;;;;;;0.50;0.50;;;9.40;94.70;;;;;;5047661;28;20056;-65
2023/01/05 06:43:44;;;;;;;0.95;0.70;;;9.40;94.50;;;;;;5032488;28;20038;-66
2023/01/05 06:46:09;;;;;;;1.27;0.75;;;9.30;93.60;;;;;;5031557;28;21014;-64
2023/01/05 06:48:35;;;;;;;0.75;0.65;;;9.30;91.90;;;;;;5033039;28;20326;-66
2023/01/05 06:51:00;;;;;;;1.52;0.70;;;9.10;90.00;;;;;;5031663;28;20075;-66
2023/01/05 06:53:26;;;;;;;1.15;0.80;;;9.10;90.00;;;;;;5032917;28;20025;-65
2023/01/05 06:55:51;;;;;;;2.97;1.30;;;9.10;90.50;;;;;;5034364;28;20072;-66
2023/01/05 06:58:17;;;;;;;3.45;1.20;;;9.10;90.00;;;;;;5033928;28;20037;-66
2023/01/05 07:00:42;;;;;;;4.13;1.60;;;9.10;90.00;;;;;;5031863;28;20025;-66
2023/01/05 07:03:12;;;;;;;2.95;1.20;;;9.10;91.00;;;;;;5039428;28;20033;-66
2023/01/05 07:05:38;;;;;;;1.92;0.90;;;9.20;92.80;;;;;;5030850;28;20034;-65
2023/01/05 07:08:03;;;;;;;2.25;1.10;;;9.20;92.50;;;;;;5029033;28;20092;-66
2023/01/05 07:10:29;;;;;;;2.17;1.10;;;9.20;93.50;;;;;;5027951;28;20087;-66
2023/01/05 07:12:54;;;;;;;2.67;1.10;;;9.30;94.00;;;;;;5035220;28;20033;-66
2023/01/05 07:15:20;;;;;;;2.78;1.30;;;9.30;95.10;;;;;;5030685;28;20399;-66
2023/01/05 07:17:45;;;;;;;2.58;1.30;;;9.40;95.70;;;;;;5032167;28;20029;-66
2023/01/05 07:20:11;;;;;;;6.65;3.10;;;9.40;95.90;;;;;;5034183;28;20055;-66
2023/01/05 07:22:37;;;;;;;2.58;1.20;;;9.40;96.30;;;;;;5028568;28;20033;-66
2023/01/05 07:25:03;;;;;;;3.80;1.70;;;9.50;97.40;;;;;;5032583;28;20045;-66
2023/01/05 07:27:28;;;;;;;3.58;1.67;;;9.50;97.60;;;;;;5035026;28;20041;-66
2023/01/05 07:29:54;;;;;;;4.30;1.27;;;9.50;98.00;;;;;;5034464;28;20072;-66
2023/01/05 07:32:21;;;;;;;3.10;1.60;;;9.50;98.00;;;;;;5030178;28;20347;-64
2023/01/05 07:34:46;;;;;;;1.65;1.08;;;9.60;98.00;;;;;;5032888;28;20108;-66
2023/01/05 07:37:12;;;;;;;2.97;1.05;;;9.60;98.00;;;;;;5029116;28;20482;-66
2023/01/05 07:39:38;;;;;;;1.30;0.82;;;9.60;98.00;;;;;;5041127;28;20445;-66
2023/01/05 07:42:03;;;;;;;3.28;1.15;;;9.60;98.00;;;;;;5032265;28;20722;-65
2023/01/05 07:44:30;;;;;;;2.50;1.10;;;9.60;98.00;;;;;;5031404;28;20418;-65
2023/01/05 07:46:57;;;;;;;2.03;1.00;;;9.60;98.00;;;;;;5032938;28;20031;-66
2023/01/05 07:49:23;;;;;;;3.67;1.40;;;9.70;98.00;;;;;;5037155;28;20334;-65
2023/01/05 07:51:48;;;;;;;2.92;1.17;;;9.60;98.00;;;;;;5028098;28;20017;-66
2023/01/05 07:54:14;;;;;;;3.15;1.40;;;9.60;98.00;;;;;;5035665;28;20128;-66
2023/01/05 07:56:40;;;;;;;2.63;1.00;;;9.70;98.00;;;;;;5034684;28;20053;-66
2023/01/05 07:59:05;;;;;;;2.05;1.00;;;9.60;98.00;;;;;;5028745;28;20415;-66
2023/01/05 08:01:31;;;;;;;2.55;1.52;;;9.70;98.00;;;;;;5034541;28;20369;-65
2023/01/05 08:03:56;;;;;;;1.98;0.93;;;9.70;98.00;;;;;;5037687;28;20037;-66
2023/01/05 08:06:22;;;;;;;5.40;2.45;;;9.70;98.00;;;;;;5038781;28;20029;-66
2023/01/05 08:08:48;;;;;;;1.65;0.88;;;9.70;98.00;;;;;;5039167;28;20057;-66
2023/01/05 08:11:16;;;;;;;2.97;1.20;;;9.70;98.00;;;;;;5038181;28;20053;-65
2023/01/05 08:13:58;;;;;;;6.72;3.10;;;9.70;98.00;;;;;;5039128;28;20354;-66
2023/01/05 08:16:24;;;;;;;4.00;1.60;;;9.70;98.00;;;;;;5027741;28;20030;-66
2023/01/05 08:18:49;;;;;;;2.90;1.23;;;9.60;98.00;;;;;;5037623;28;20057;-66
2023/01/05 08:21:15;;;;;;;1.92;1.02;;;9.60;98.00;;;;;;5037009;28;20036;-66
2023/01/05 08:23:41;;;;;;;2.17;1.15;;;9.60;98.00;;;;;;5037404;28;20033;-66
2023/01/05 08:26:12;;;;;;;1.40;0.90;;;9.70;98.00;;;;;;5037766;28;20344;-66
2023/01/05 08:28:38;;;;;;;2.22;1.13;;;9.70;98.00;;;;;;5037849;28;20112;-66
2023/01/05 08:31:06;;;;;;;2.42;1.00;;;9.80;98.00;;;;;;5038779;28;20025;-66
2023/01/05 08:33:32;;;;;;;2.50;1.10;;;9.90;98.00;;;;;;5036739;28;20028;-66
2023/01/05 08:35:58;;;;;;;2.22;1.13;;;10.00;98.00;;;;;;5035714;28;20022;-66
2023/01/05 08:38:24;;;;;;;2.30;0.90;;;10.10;98.00;;;;;;5037872;28;20025;-66
2023/01/05 08:40:50;;;;;;;2.13;1.08;;;10.10;98.00;;;;;;5022668;28;20029;-66
2023/01/05 08:43:15;;;;;;;3.03;1.30;;;10.10;98.00;;;;;;5016896;28;20033;-66
2023/01/05 08:45:41;;;;;;;2.47;1.17;;;10.20;98.00;;;;;;5028892;28;20097;-66
2023/01/05 08:48:08;;;;;;;1.85;1.00;;;10.20;98.00;;;;;;5037455;28;20519;-66
2023/01/05 08:50:33;;;;;;;3.17;1.20;;;10.20;98.00;;;;;;5037327;28;20053;-66
2023/01/05 08:52:59;;;;;;;2.05;1.00;;;10.30;98.00;;;;;;5038453;28;20351;-66
2023/01/05 08:55:24;;;;;;;2.88;0.90;;;10.30;98.00;;;;;;5022778;28;20484;-66
2023/01/05 08:57:50;;;;;;;4.40;1.60;;;10.30;98.00;;;;;;5026331;28;20026;-66
2023/01/05 09:00:16;;;;;;;7.85;3.85;;;10.30;98.00;;;;;;5035947;28;20104;-65
2023/01/05 09:02:43;;;;;;;2.85;1.17;;;10.30;98.00;;;;;;5027056;28;20072;-65
2023/01/05 09:05:09;;;;;;;3.22;0.93;;;10.30;98.00;;;;;;5015829;28;20088;-65
2023/01/05 09:07:34;;;;;;;2.40;1.10;;;10.40;98.00;;;;;;5013000;28;20462;-65
2023/01/05 09:10:00;;;;;;;4.18;1.00;;;10.50;98.00;;;;;;5012987;28;20030;-65
2023/01/05 09:12:25;;;;;;;3.08;1.02;;;10.80;98.00;;;;;;5017503;28;20335;-67
2023/01/05 09:14:53;;;;;;;1.85;0.80;;;11.30;97.40;;;;;;5016178;28;20555;-67
2023/01/05 09:17:18;;;;;;;2.10;1.00;;;11.50;95.90;;;;;;5033635;28;20296;-66
2023/01/05 09:19:44;;;;;;;2.53;1.13;;;11.30;96.40;;;;;;5027875;28;20044;-66
2023/01/05 09:22:10;;;;;;;1.90;1.00;;;11.30;97.00;;;;;;5026977;28;22122;-67
2023/01/05 09:24:35;;;;;;;3.13;1.00;;;11.40;96.70;;;;;;5032610;28;20029;-66
2023/01/05 09:27:02;;;;;;;3.80;1.23;;;11.20;97.10;;;;;;5030884;28;20060;-66
2023/01/05 09:29:28;;;;;;;2.45;1.10;;;11.10;97.60;;;;;;5034887;28;20026;-66
2023/01/05 09:31:53;;;;;;;1.70;0.98;;;11.10;97.70;;;;;;5032426;28;20410;-65
2023/01/05 09:34:19;;;;;;;5.45;1.90;;;11.10;98.00;;;;;;5025725;28;20513;-66
2023/01/05 09:36:45;;;;;;;2.67;1.10;;;11.00;98.00;;;;;;5030279;28;20033;-66
2023/01/05 09:39:10;;;;;;;3.15;1.00;;;10.90;98.00;;;;;;5035522;28;20105;-66
2023/01/05 09:41:46;;;;;;;1.48;0.80;;;10.80;98.00;;;;;;5036292;28;20110;-65
2023/01/05 09:44:35;;;;;;;3.50;1.08;;;10.60;98.00;;;;;;5036321;28;20028;-66
2023/01/05 09:47:22;;;;;;;2.83;1.23;;;10.50;98.00;;;;;;5034635;28;20088;-66
2023/01/05 09:49:49;;;;;;;4.07;1.42;;;10.50;98.00;;;;;;5036178;28;20042;-66
2023/01/05 09:52:17;;;;;;;6.47;2.40;;;10.50;98.00;;;;;;5034517;28;20152;-66
2023/01/05 09:54:42;;;;;;;3.60;1.50;;;10.60;98.00;;;;;;5032241;28;20029;-66
2023/01/05 09:57:20;;;;;;;2.75;1.20;;;10.60;98.00;;;;;;5036283;28;20323;-67
2023/01/05 09:59:52;;;;;;;3.47;1.50;;;10.70;98.00;;;;;;5034648;28;20029;-66
2023/01/05 10:02:32;;;;;;;2.90;1.20;;;10.80;98.00;;;;;;5035240;28;20112;-66
2023/01/05 10:04:59;;;;;;;1.90;1.00;;;10.80;98.00;;;;;;5029050;28;20033;-66
2023/01/05 10:08:03;;;;;;;1.88;0.98;;;10.60;98.00;;;;;;5031162;28;20029;-66
2023/01/05 10:10:42;;;;;;;2.28;1.15;;;10.60;98.00;;;;;;5029354;28;20434;-66
2023/01/05 10:13:30;;;;;;;2.90;1.10;;;10.60;98.00;;;;;;5034159;28;20071;-66
2023/01/05 10:15:55;;;;;;;2.80;1.30;;;10.50;98.00;;;;;;5032877;28;20348;-66
2023/01/05 10:18:24;;;;;;;1.90;1.00;;;10.30;98.00;;;;;;5034880;28;20151;-66
2023/01/05 10:21:02;;;;;;;4.43;1.10;;;10.30;98.00;;;;;;5032547;28;20044;-65
2023/01/05 10:24:01;;;;;;;3.80;1.40;;;10.30;98.00;;;;;;5034067;28;20029;-66
2023/01/05 10:26:43;;;;;;;3.17;1.42;;;10.40;98.00;;;;;;5035586;28;20530;-67
2023/01/05 10:29:21;;;;;;;4.88;1.98;;;10.50;98.00;;;;;;5036521;28;20029;-65
2023/01/05 10:31:57;;;;;;;5.28;2.28;;;10.70;98.00;;;;;;5034150;28;20444;-67
2023/01/05 10:34:54;;;;;;;3.08;1.17;;;10.70;98.00;;;;;;5033218;28;20053;-66
2023/01/05 10:37:46;;;;;;;2.83;1.00;;;10.80;98.00;;;;;;5034491;28;20013;-66
2023/01/05 10:40:39;;;;;;;4.47;1.50;;;10.80;98.00;;;;;;5035034;28;20034;-66
2023/01/05 10:43:39;;;;;;;3.58;1.50;;;10.80;98.00;;;;;;5035445;28;20041;-66
2023/01/05 10:46:09;;;;;;;3.78;1.40;;;10.80;98.00;;;;;;5030536;28;20311;-66
2023/01/05 10:48:35;;;;;;;4.38;1.20;;;10.70;97.90;;;;;;5035425;28;20032;-66
2023/01/05 10:51:02;;;;;;;5.25;1.40;;;10.50;98.00;;;;;;5032988;28;20315;-66
2023/01/05 10:53:29;;;;;;;6.07;1.30;;;10.40;98.00;;;;;;5035519;28;20176;-66
2023/01/05 10:56:02;;;;;;;4.93;1.60;;;10.30;98.00;;;;;;5035289;28;20307;-66
2023/01/05 10:58:30;;;;;;;3.22;1.15;;;10.30;98.00;;;;;;5033008;28;20441;-67
2023/01/05 11:01:03;;;;;;;4.63;1.30;;;10.20;98.00;;;;;;5036129;28;20044;-67
2023/01/05 11:03:33;;;;;;;3.17;1.30;;;10.20;98.00;;;;;;5038200;28;20483;-66
2023/01/05 11:05:59;;;;;;;6.28;1.55;;;10.20;98.00;;;;;;5045014;28;20097;-66
2023/01/05 11:08:28;;;;;;;5.70;2.40;;;10.10;98.00;;;;;;5043934;28;20098;-67
2023/01/05 11:11:02;;;;;;;5.18;1.58;;;10.10;98.00;;;;;;5052281;28;20108;-66
2023/01/05 11:13:38;;;;;;;;;;;10.10;98.00;;;;;;5035675;28;20330;-66
2023/01/05 11:16:28;;;;;;;9.98;3.45;;;10.10;98.00;;;;;;5034792;28;19905;-66
2023/01/05 11:19:06;;;;;;;6.57;2.38;;;10.10;98.00;;;;;;5032854;28;20029;-67
2023/01/05 11:21:34;;;;;;;6.15;1.85;;;10.10;98.00;;;;;;5033351;28;20460;-66
2023/01/05 11:24:01;;;;;;;8.70;2.63;;;10.00;98.00;;;;;;5035962;28;20029;-66
2023/01/05 11:26:28;;;;;;;11.05;3.95;;;10.00;98.00;;;;;;5031899;28;20041;-67
2023/01/05 11:29:02;;;;;;;8.75;2.33;;;10.00;98.00;;;;;;5033564;28;20036;-67
2023/01/05 11:31:36;;;;;;;11.30;3.53;;;10.00;98.00;;;;;;5034895;28;20049;-66
2023/01/05 11:34:24;;;;;;;11.20;3.42;;;10.10;98.00;;;;;;5034505;28;20422;-66
2023/01/05 11:36:53;;;;;;;8.65;2.72;;;10.20;98.00;;;;;;5028586;28;20081;-66
2023/01/05 11:39:45;;;;;;;10.52;2.30;;;10.30;98.00;;;;;;5034405;28;20026;-67
2023/01/05 11:42:23;;;;;;;11.45;4.18;;;10.20;98.00;;;;;;5025785;28;20042;-67
2023/01/05 11:45:01;;;;;;;12.75;3.42;;;10.20;98.00;;;;;;5024307;28;20080;-67
2023/01/05 11:47:35;;;;;;;10.65;3.33;;;10.20;98.00;;;;;;5034060;28;20032;-66
2023/01/05 11:50:13;;;;;;;7.55;2.83;;;10.20;98.00;;;;;;5028220;28;20056;-66
2023/01/05 11:52:41;;;;;;;9.32;2.85;;;10.20;98.00;;;;;;5043392;28;20322;-67
2023/01/05 11:55:18;;;;;;;9.40;3.45;;;10.20;98.00;;;;;;5046209;28;20497;-66
2023/01/05 11:57:45;;;;;;;6.70;2.60;;;10.20;98.00;;;;;;5035661;28;20032;-66
2023/01/05 12:00:30;;;;;;;8.60;2.83;;;10.30;98.00;;;;;;5035412;28;20414;-66
2023/01/05 12:03:37;;;;;;;8.48;2.55;;;10.30;98.00;;;;;;5031868;28;20355;-66
2023/01/05 12:06:44;;;;;;;7.35;1.98;;;10.30;97.90;;;;;;5031954;28;20030;-67
2023/01/05 12:09:33;;;;;;;6.95;1.77;;;10.30;98.00;;;;;;5035164;28;20025;-68
2023/01/05 12:11:59;;;;;;;6.28;1.77;;;10.30;97.70;;;;;;5033632;28;20361;-67
2023/01/05 12:14:33;;;;;;;6.10;2.08;;;10.30;97.70;;;;;;5033722;28;20100;-67
2023/01/05 12:17:08;;;;;;;7.97;2.15;;;10.30;97.70;;;;;;5018524;28;20422;-66
2023/01/05 12:19:52;;;;;;;8.38;2.42;;;10.20;97.70;;;;;;5034879;28;20033;-67
2023/01/05 12:22:57;;;;;;;8.18;2.35;;;10.20;97.70;;;;;;5033146;28;20441;-66
2023/01/05 12:25:33;;;;;;;7.30;2.22;;;10.20;97.30;;;;;;5038468;28;20119;-66
2023/01/05 12:28:32;;;;;;;10.98;2.17;;;10.10;96.20;;;;;;5038048;28;20143;-67
2023/01/05 12:31:18;;;;;;;9.00;2.90;;;10.20;95.50;;;;;;5038921;28;20048;-67
2023/01/05 12:33:43;;;;;;;7.03;2.33;;;10.20;95.50;;;;;;5037299;28;20026;-67
2023/01/05 12:36:55;;;;;;;10.43;3.03;;;10.30;95.20;;;;;;5037198;28;20075;-67
2023/01/05 12:39:56;;;;;;;11.45;2.92;;;10.40;95.10;;;;;;5038581;28;20022;-67
2023/01/05 12:42:22;;;;;;;7.75;2.40;;;10.40;95.40;;;;;;5037647;28;20029;-67
2023/01/05 12:45:15;;;;;;;9.48;2.80;;;10.40;95.30;;;;;;5038394;28;20040;-66
2023/01/05 12:47:59;;;;;;;13.18;3.15;;;10.40;95.40;;;;;;5037723;28;20030;-66
2023/01/05 12:50:43;;;;;;;9.60;2.65;;;10.30;95.90;;;;;;5037267;28;20047;-67
2023/01/05 12:53:36;;;;;;;8.65;2.47;;;10.30;95.90;;;;;;5037295;28;20107;-67
2023/01/05 12:56:18;;;;;;;10.65;2.63;;;10.30;95.90;;;;;;5036192;28;20033;-66
2023/01/05 12:59:12;;;;;;;12.65;2.22;;;10.30;96.00;;;;;;5037975;28;20342;-66
2023/01/05 13:01:45;;;;;;;10.43;3.50;;;10.30;96.00;;;;;;5034295;28;20036;-66
2023/01/05 13:04:44;;;;;;;9.75;3.33;;;10.30;96.10;;;;;;5025897;28;20029;-65
2023/01/05 13:07:20;;;;;;;10.32;3.28;;;10.30;96.30;;;;;;5035999;28;20025;-66
2023/01/05 13:09:54;;;;;;;15.10;3.90;;;10.40;95.60;;;;;;5037861;28;20056;-67
2023/01/05 13:12:20;;;;;;;9.80;2.75;;;10.30;95.70;;;;;;5036075;28;20113;-66
2023/01/05 13:15:13;;;;;;;9.27;2.38;;;10.30;95.50;;;;;;5037160;28;20589;-66
2023/01/05 13:17:44;;;;;;;8.52;2.50;;;10.30;95.60;;;;;;5037168;28;20049;-66
2023/01/05 13:20:30;;;;;;;7.90;2.70;;;10.30;95.10;;;;;;5038372;28;20481;-66
2023/01/05 13:23:03;;;;;;;13.93;4.40;;;10.30;94.90;;;;;;5037084;28;20037;-66
2023/01/05 13:25:35;;;;;;;11.68;4.25;;;10.30;94.90;;;;;;5037828;28;20045;-66
2023/01/05 13:28:01;;;;;;;12.38;3.50;;;10.30;94.90;;;;;;5037213;28;20334;-66
2023/01/05 13:30:31;;;;;;;9.68;3.35;;;10.30;94.90;;;;;;5033452;28;20092;-66
2023/01/05 13:33:31;;;;;;;12.10;4.10;;;10.30;94.60;;;;;;5034558;28;20067;-66
2023/01/05 13:36:20;;;;;;;10.13;2.53;;;10.20;94.60;;;;;;5035076;28;20318;-66
2023/01/05 13:39:20;;;;;;;7.03;2.00;;;10.20;94.30;;;;;;5037478;28;20052;-66
2023/01/05 13:42:07;;;;;;;8.75;2.40;;;10.20;94.20;;;;;;5034856;28;20053;-66